createdAt,value
2023-03-17T00:00:46.501Z,16.93
2023-03-17T00:03:25.802Z,20.00
2023-03-17T00:05:54.801Z,17.87
2023-03-17T00:08:26.582Z,21.60
2023-03-17T00:10:55.057Z,20.00
2023-03-17T00:13:23.966Z,18.40
2023-03-17T00:15:58.987Z,14.00
2023-03-17T00:18:26.373Z,15.73
2023-03-17T00:20:53.663Z,15.33
2023-03-17T00:23:24.438Z,16.43
2023-03-17T00:25:54.213Z,17.47
2023-03-17T00:28:24.092Z,24.73
2023-03-17T00:31:01.244Z,14.53
2023-03-17T00:33:33.170Z,13.80
2023-03-17T00:36:01.374Z,18.20
2023-03-17T00:38:28.581Z,10.30
2023-03-17T00:40:55.787Z,10.60
2023-03-17T00:43:23.065Z,8.20
2023-03-17T00:45:51.208Z,13.10
2023-03-17T00:48:22.255Z,13.00
2023-03-17T00:50:51.179Z,11.83
2023-03-17T00:53:21.682Z,10.37
2023-03-17T00:55:50.009Z,8.87
2023-03-17T00:58:34.446Z,9.00
2023-03-17T01:01:02.351Z,7.97
2023-03-17T01:03:29.629Z,8.83
2023-03-17T01:05:59.949Z,11.17
2023-03-17T01:08:28.721Z,10.83
2023-03-17T01:10:56.778Z,11.23
2023-03-17T01:13:24.394Z,15.03
2023-03-17T01:15:53.069Z,9.83
2023-03-17T01:18:22.997Z,10.33
2023-03-17T01:20:50.983Z,10.90
2023-03-17T01:23:18.389Z,8.63
2023-03-17T01:25:45.739Z,10.40
2023-03-17T01:28:19.181Z,11.93
2023-03-17T01:30:47.479Z,10.87
2023-03-17T01:33:15.670Z,10.37
2023-03-17T01:35:45.739Z,9.33
2023-03-17T01:38:14.962Z,10.20
2023-03-17T01:40:51.937Z,9.53
2023-03-17T01:43:29.553Z,14.47
2023-03-17T01:46:17.278Z,12.53
2023-03-17T01:49:05.740Z,10.90
2023-03-17T01:52:11.151Z,15.60
2023-03-17T01:54:53.158Z,9.07
2023-03-17T01:57:37.122Z,7.53
2023-03-17T02:00:16.376Z,9.33
2023-03-17T02:02:47.916Z,9.43
2023-03-17T02:05:21.287Z,14.33
2023-03-17T02:07:49.315Z,11.00
2023-03-17T02:10:20.626Z,12.10
2023-03-17T02:12:55.458Z,10.37
2023-03-17T02:15:23.894Z,11.80
2023-03-17T02:17:50.984Z,12.43
2023-03-17T02:20:18.482Z,8.60
2023-03-17T02:22:52.563Z,10.70
2023-03-17T02:25:23.580Z,10.87
2023-03-17T02:27:55.618Z,9.47
2023-03-17T02:30:25.449Z,7.73
2023-03-17T02:32:52.747Z,8.77
2023-03-17T02:35:20.603Z,12.83
2023-03-17T02:37:47.842Z,10.87
2023-03-17T02:40:15.568Z,13.80
2023-03-17T02:42:42.683Z,10.00
2023-03-17T02:45:12.704Z,21.03
2023-03-17T02:47:41.477Z,16.10
2023-03-17T02:50:18.151Z,12.97
2023-03-17T02:52:45.308Z,12.30
2023-03-17T02:55:12.440Z,16.80
2023-03-17T02:57:39.615Z,15.20
2023-03-17T03:00:10.517Z,9.20
2023-03-17T03:02:39.096Z,9.60
2023-03-17T03:05:08.853Z,13.40
2023-03-17T03:07:36.672Z,11.70
2023-03-17T03:10:05.530Z,10.63
2023-03-17T03:12:32.674Z,8.73
2023-03-17T03:15:00.759Z,13.27
2023-03-17T03:17:27.908Z,13.03
2023-03-17T03:19:55.416Z,11.57
2023-03-17T03:22:22.492Z,12.73
2023-03-17T03:24:49.720Z,16.00
2023-03-17T03:27:16.999Z,9.93
2023-03-17T03:29:44.308Z,15.97
2023-03-17T03:32:11.492Z,20.33
2023-03-17T03:34:38.663Z,16.43
2023-03-17T03:37:06.056Z,15.33
2023-03-17T03:39:33.136Z,15.87
2023-03-17T03:42:00.730Z,17.63
2023-03-17T03:44:27.848Z,16.17
2023-03-17T03:46:54.945Z,16.27
2023-03-17T03:49:22.683Z,16.43
2023-03-17T03:51:50.370Z,15.57
2023-03-17T03:54:17.450Z,18.97
2023-03-17T03:56:44.647Z,14.90
2023-03-17T03:59:11.814Z,16.90
2023-03-17T04:01:40.081Z,20.23
2023-03-17T04:04:07.525Z,17.27
2023-03-17T04:06:34.693Z,20.17
2023-03-17T04:09:02.434Z,15.13
2023-03-17T04:11:29.523Z,16.67
2023-03-17T04:13:56.906Z,18.67
2023-03-17T04:16:24.477Z,17.37
2023-03-17T04:18:51.892Z,17.30
2023-03-17T04:21:20.575Z,16.77
2023-03-17T04:23:47.948Z,14.60
2023-03-17T04:26:15.062Z,19.80
2023-03-17T04:28:42.119Z,17.23
2023-03-17T04:31:12.502Z,18.73
2023-03-17T04:33:40.577Z,17.20
2023-03-17T04:36:13.712Z,13.47
2023-03-17T04:38:40.872Z,17.20
2023-03-17T04:41:08.006Z,17.40
2023-03-17T04:43:35.425Z,23.97
2023-03-17T04:46:02.717Z,12.87
2023-03-17T04:48:29.877Z,15.27
2023-03-17T04:50:57.236Z,12.83
2023-03-17T04:53:24.720Z,15.80
2023-03-17T04:55:51.990Z,17.03
2023-03-17T04:58:30.542Z,19.97
2023-03-17T05:00:59.138Z,13.70
2023-03-17T05:03:28.562Z,17.80
2023-03-17T05:06:00.152Z,17.33
2023-03-17T05:08:28.507Z,16.17
2023-03-17T05:10:57.441Z,17.43
2023-03-17T05:13:26.587Z,14.57
2023-03-17T05:15:55.651Z,16.93
2023-03-17T05:18:25.722Z,13.07
2023-03-17T05:20:52.959Z,16.03
2023-03-17T05:23:20.608Z,16.50
2023-03-17T05:25:48.347Z,14.57
2023-03-17T05:28:16.004Z,11.80
2023-03-17T05:30:43.600Z,14.53
2023-03-17T05:33:10.818Z,13.57
2023-03-17T05:35:38.361Z,15.13
2023-03-17T05:38:05.627Z,11.20
2023-03-17T05:40:33.260Z,12.90
2023-03-17T05:43:00.853Z,11.73
2023-03-17T05:45:29.373Z,16.60
2023-03-17T05:47:57.107Z,14.57
2023-03-17T05:50:25.077Z,14.47
2023-03-17T05:52:52.359Z,16.87
2023-03-17T05:55:20.602Z,18.07
2023-03-17T05:57:47.912Z,20.67
2023-03-17T06:00:16.281Z,17.17
2023-03-17T06:02:43.518Z,13.10
2023-03-17T06:05:11.577Z,14.87
2023-03-17T06:07:51.721Z,16.43
2023-03-17T06:10:22.013Z,18.83
2023-03-17T06:12:49.188Z,11.97
2023-03-17T06:15:17.323Z,12.33
2023-03-17T06:17:44.707Z,15.37
2023-03-17T06:20:13.275Z,12.07
2023-03-17T06:22:55.194Z,15.00
2023-03-17T06:25:28.461Z,12.27
2023-03-17T06:27:56.277Z,13.30
2023-03-17T06:30:23.417Z,11.30
2023-03-17T06:32:50.600Z,17.47
2023-03-17T06:35:18.182Z,12.70
2023-03-17T06:37:45.375Z,16.17
2023-03-17T06:40:13.427Z,12.67
2023-03-17T06:42:40.590Z,15.87
2023-03-17T06:45:09.436Z,15.63
2023-03-17T06:47:37.429Z,13.47
2023-03-17T06:50:06.074Z,16.23
2023-03-17T06:52:33.244Z,10.87
2023-03-17T06:55:00.435Z,14.23
2023-03-17T06:57:27.589Z,12.47
2023-03-17T06:59:54.834Z,9.77
2023-03-17T07:02:21.942Z,10.40
2023-03-17T07:04:49.149Z,11.87
2023-03-17T07:07:16.687Z,18.90
2023-03-17T07:09:43.817Z,10.40
2023-03-17T07:12:11.333Z,13.23
2023-03-17T07:14:38.607Z,13.03
2023-03-17T07:17:06.816Z,18.00
2023-03-17T07:19:35.122Z,17.45
2023-03-17T07:22:02.298Z,13.32
2023-03-17T07:24:29.700Z,11.90
2023-03-17T07:26:56.994Z,15.02
2023-03-17T07:29:24.157Z,10.57
2023-03-17T07:31:51.411Z,10.93
2023-03-17T07:34:18.589Z,12.70
2023-03-17T07:36:46.064Z,13.90
2023-03-17T07:39:13.148Z,12.38
2023-03-17T07:41:40.367Z,14.63
2023-03-17T07:44:08.322Z,12.55
2023-03-17T07:46:35.720Z,13.48
2023-03-17T07:49:02.902Z,13.23
2023-03-17T07:51:30.204Z,13.10
2023-03-17T07:54:03.542Z,9.75
2023-03-17T07:56:32.836Z,12.82
2023-03-17T07:59:00.272Z,6.07
2023-03-17T08:01:28.716Z,7.90
2023-03-17T08:03:56.687Z,7.88
2023-03-17T08:06:27.709Z,11.77
2023-03-17T08:08:55.387Z,8.13
2023-03-17T08:11:23.529Z,9.80
2023-03-17T08:13:51.096Z,9.27
2023-03-17T08:16:18.412Z,13.00
2023-03-17T08:18:45.626Z,8.63
2023-03-17T08:21:14.796Z,7.72
2023-03-17T08:23:43.298Z,12.95
2023-03-17T08:26:10.724Z,11.55
2023-03-17T08:28:38.402Z,10.73
2023-03-17T08:31:17.124Z,11.32
2023-03-17T08:33:49.287Z,10.77
2023-03-17T08:36:19.265Z,9.95
2023-03-17T08:38:48.106Z,8.02
2023-03-17T08:41:19.205Z,10.65
2023-03-17T08:43:47.156Z,7.03
2023-03-17T08:46:29.973Z,8.38
2023-03-17T08:48:59.132Z,8.60
2023-03-17T08:51:31.241Z,17.02
2023-03-17T08:53:58.809Z,16.17
2023-03-17T08:56:26.142Z,9.02
2023-03-17T08:58:53.521Z,13.50
2023-03-17T09:01:22.742Z,11.52
2023-03-17T09:03:51.294Z,9.25
2023-03-17T09:06:18.594Z,12.65
2023-03-17T09:08:47.528Z,12.35
2023-03-17T09:11:20.421Z,9.48
2023-03-17T09:13:48.026Z,9.90
2023-03-17T09:16:16.459Z,11.85
2023-03-17T09:18:45.179Z,8.93
2023-03-17T09:21:14.173Z,8.30
2023-03-17T09:23:42.240Z,11.67
2023-03-17T09:26:10.334Z,10.10
2023-03-17T09:28:37.492Z,9.57
2023-03-17T09:31:11.344Z,10.13
2023-03-17T09:33:42.222Z,14.13
2023-03-17T09:36:10.909Z,9.32
2023-03-17T09:38:38.718Z,14.38
2023-03-17T09:41:58.932Z,11.13
2023-03-17T09:44:43.793Z,15.82
2023-03-17T09:47:21.148Z,10.63
2023-03-17T09:49:58.512Z,9.18
2023-03-17T09:52:30.411Z,12.35
2023-03-17T09:54:59.038Z,8.40
2023-03-17T09:57:40.116Z,8.13
2023-03-17T10:00:20.766Z,13.55
2023-03-17T10:02:47.926Z,12.32
2023-03-17T10:05:32.014Z,9.38
2023-03-17T10:08:32.071Z,9.35
2023-03-17T10:11:10.982Z,8.32
2023-03-17T10:14:03.937Z,8.63
2023-03-17T10:16:51.892Z,8.82
2023-03-17T10:19:36.166Z,9.35
2023-03-17T10:22:16.002Z,7.82
2023-03-17T10:24:57.506Z,13.80
2023-03-17T10:27:24.967Z,12.15
2023-03-17T10:29:52.720Z,7.53
2023-03-17T10:32:19.872Z,13.57
2023-03-17T10:34:48.685Z,7.75
2023-03-17T10:37:23.976Z,12.95
2023-03-17T10:39:54.640Z,10.52
2023-03-17T10:42:33.178Z,9.90
2023-03-17T10:45:29.877Z,12.90
2023-03-17T10:48:00.129Z,12.55
2023-03-17T10:50:34.550Z,13.15
2023-03-17T10:53:10.930Z,8.38
2023-03-17T10:55:37.951Z,10.68
2023-03-17T10:58:15.696Z,7.20
2023-03-17T11:01:00.412Z,11.75
2023-03-17T11:03:36.036Z,9.13
2023-03-17T11:06:11.623Z,12.30
2023-03-17T11:08:55.942Z,11.70
2023-03-17T11:11:36.224Z,9.15
2023-03-17T11:14:11.708Z,8.98
2023-03-17T11:17:01.199Z,9.43
2023-03-17T11:19:47.651Z,9.77
2023-03-17T11:22:24.877Z,9.02
2023-03-17T11:25:10.274Z,8.80
2023-03-17T11:27:52.182Z,9.80
2023-03-17T11:30:36.943Z,8.57
2023-03-17T11:33:28.092Z,6.10
2023-03-17T11:36:30.097Z,11.48
2023-03-17T11:39:20.095Z,8.95
2023-03-17T11:42:11.570Z,7.03
2023-03-17T11:45:05.250Z,8.00
2023-03-17T11:48:17.350Z,11.13
2023-03-17T11:51:30.381Z,6.85
2023-03-17T11:54:12.592Z,9.02
2023-03-17T11:56:51.868Z,8.30
2023-03-17T11:59:39.420Z,11.18
2023-03-17T12:02:15.309Z,10.80
2023-03-17T12:04:58.587Z,9.63
2023-03-17T12:07:53.279Z,11.18
2023-03-17T12:11:01.072Z,7.75
2023-03-17T12:13:39.874Z,8.75
2023-03-17T12:16:29.497Z,9.27
2023-03-17T12:19:26.223Z,8.65
2023-03-17T12:24:45.700Z,8.90
2023-03-17T12:27:23.357Z,12.43
2023-03-17T12:30:02.968Z,12.85
2023-03-17T12:33:06.096Z,9.70
2023-03-17T12:35:38.679Z,8.38
2023-03-17T12:38:38.146Z,8.10
2023-03-17T12:41:37.029Z,18.33
2023-03-17T12:44:33.192Z,9.57
2023-03-17T12:47:28.677Z,12.32
2023-03-17T12:50:10.799Z,12.27
2023-03-17T12:53:11.490Z,5.88
2023-03-17T12:55:39.288Z,19.42
2023-03-17T12:58:39.108Z,9.23
2023-03-17T13:01:37.343Z,7.32
2023-03-17T13:04:37.156Z,7.15
2023-03-17T13:07:23.721Z,9.57
2023-03-17T13:10:29.298Z,7.28
2023-03-17T13:13:07.221Z,7.70
2023-03-17T13:15:38.646Z,6.07
2023-03-17T13:18:17.704Z,5.90
2023-03-17T13:20:56.865Z,7.45
2023-03-17T13:23:59.590Z,7.43
2023-03-17T13:26:58.197Z,7.10
2023-03-17T13:29:34.810Z,6.03
2023-03-17T13:32:33.837Z,5.88
2023-03-17T13:35:01.224Z,8.95
2023-03-17T13:37:33.626Z,7.00
2023-03-17T13:40:30.554Z,7.03
2023-03-17T13:43:32.655Z,5.60
2023-03-17T13:46:18.637Z,6.10
2023-03-17T13:51:19.396Z,7.70
2023-03-17T13:53:57.646Z,8.02
2023-03-17T13:56:37.766Z,7.45
2023-03-17T13:59:18.550Z,7.38
2023-03-17T14:02:02.860Z,15.35
2023-03-17T14:04:54.830Z,6.57
2023-03-17T14:07:31.719Z,6.60
2023-03-17T14:10:03.050Z,8.57
2023-03-17T14:12:39.070Z,6.80
2023-03-17T14:15:33.168Z,5.97
2023-03-17T14:18:42.261Z,6.95
2023-03-17T14:21:24.297Z,5.95
2023-03-17T14:24:00.886Z,7.75
2023-03-17T14:26:31.596Z,7.57
2023-03-17T14:29:04.901Z,8.57
2023-03-17T14:31:32.261Z,5.93
2023-03-17T14:34:01.316Z,6.72
2023-03-17T14:36:33.860Z,5.28
2023-03-17T14:39:00.986Z,5.95
2023-03-17T14:41:29.369Z,7.40
2023-03-17T14:44:01.521Z,9.88
2023-03-17T14:46:37.213Z,6.75
2023-03-17T14:49:20.954Z,6.13
2023-03-17T14:51:58.289Z,6.18
2023-03-17T14:54:33.545Z,7.80
2023-03-17T14:57:15.823Z,9.25
2023-03-17T14:59:55.328Z,10.00
2023-03-17T15:02:35.730Z,9.63
2023-03-17T15:05:40.411Z,7.07
2023-03-17T15:08:36.467Z,9.40
2023-03-17T15:11:06.591Z,10.63
2023-03-17T15:13:38.178Z,7.60
2023-03-17T15:16:29.996Z,10.68
2023-03-17T15:19:21.348Z,10.73
2023-03-17T15:21:49.052Z,8.77
2023-03-17T15:24:40.555Z,8.57
2023-03-17T15:27:17.355Z,7.90
2023-03-17T15:29:48.297Z,7.90
2023-03-17T15:32:27.446Z,11.40
2023-03-17T15:34:59.173Z,7.13
2023-03-17T15:37:31.889Z,8.55
2023-03-17T15:40:00.810Z,7.13
2023-03-17T15:42:32.646Z,7.25
2023-03-17T15:45:03.850Z,7.63
2023-03-17T15:47:37.751Z,7.20
2023-03-17T15:50:31.098Z,14.98
2023-03-17T15:52:58.728Z,8.57
2023-03-17T15:55:31.988Z,8.35
2023-03-17T15:57:59.421Z,7.78
2023-03-17T16:00:30.097Z,8.57
2023-03-17T16:03:04.071Z,7.70
2023-03-17T16:05:33.941Z,5.55
2023-03-17T16:08:01.517Z,6.85
2023-03-17T16:10:32.014Z,10.07
2023-03-17T16:12:59.406Z,7.90
2023-03-17T16:15:31.509Z,8.13
2023-03-17T16:18:05.283Z,8.80
2023-03-17T16:20:42.795Z,6.65
2023-03-17T16:23:27.663Z,9.60
2023-03-17T16:25:59.297Z,8.75
2023-03-17T16:28:32.910Z,8.32
2023-03-17T16:31:02.014Z,11.75
2023-03-17T16:33:39.874Z,11.65
2023-03-17T16:36:07.808Z,8.98
2023-03-17T16:38:35.048Z,9.15
2023-03-17T16:41:09.504Z,7.15
2023-03-17T16:43:38.280Z,6.53
2023-03-17T16:46:07.766Z,7.32
2023-03-17T16:48:35.448Z,7.80
2023-03-17T16:51:05.455Z,5.82
2023-03-17T16:53:32.781Z,8.45
2023-03-17T16:56:00.321Z,7.82
2023-03-17T16:58:34.644Z,9.25
2023-03-17T17:01:07.092Z,8.63
2023-03-17T17:03:37.863Z,5.78
2023-03-17T17:06:07.255Z,6.78
2023-03-17T17:08:34.725Z,8.05
2023-03-17T17:11:02.885Z,7.40
2023-03-17T17:13:32.609Z,11.13
2023-03-17T17:16:01.301Z,6.72
2023-03-17T17:18:29.147Z,7.60
2023-03-17T17:20:57.313Z,12.65
2023-03-17T17:23:27.806Z,14.82
2023-03-17T17:25:55.841Z,9.23
2023-03-17T17:28:26.247Z,5.65
2023-03-17T17:30:53.856Z,8.10
2023-03-17T17:33:22.184Z,10.93
2023-03-17T17:35:51.198Z,5.97
2023-03-17T17:38:27.892Z,8.25
2023-03-17T17:40:59.342Z,7.00
2023-03-17T17:43:29.405Z,14.05
2023-03-17T17:45:57.761Z,7.00
2023-03-17T17:48:28.618Z,7.38
2023-03-17T17:50:59.134Z,7.85
2023-03-17T17:53:27.766Z,7.47
2023-03-17T17:55:55.775Z,6.97
2023-03-17T17:58:26.152Z,6.13
2023-03-17T18:00:57.639Z,9.27
2023-03-17T18:03:27.717Z,6.95
2023-03-17T18:05:57.943Z,6.80
2023-03-17T18:08:27.984Z,5.38
2023-03-17T18:10:58.267Z,8.40
2023-03-17T18:13:26.278Z,6.72
2023-03-17T18:15:55.399Z,13.82
2023-03-17T18:18:26.487Z,6.35
2023-03-17T18:20:54.358Z,6.65
2023-03-17T18:23:22.054Z,6.53
2023-03-17T18:25:50.215Z,7.97
2023-03-17T18:28:19.791Z,7.57
2023-03-17T18:30:48.256Z,6.03
2023-03-17T18:33:20.503Z,8.10
2023-03-17T18:35:55.960Z,10.05
2023-03-17T18:38:24.330Z,8.73
2023-03-17T18:40:53.240Z,6.88
2023-03-17T18:43:21.977Z,8.85
2023-03-17T18:45:50.386Z,6.30
2023-03-17T18:48:19.792Z,4.70
2023-03-17T18:50:50.099Z,8.43
2023-03-17T18:53:19.488Z,8.05
2023-03-17T18:55:47.247Z,10.55
2023-03-17T18:58:16.172Z,9.25
2023-03-17T19:00:49.579Z,9.50
2023-03-17T19:03:19.418Z,6.57
2023-03-17T19:05:47.526Z,11.05
2023-03-17T19:08:17.271Z,8.27
2023-03-17T19:10:46.270Z,8.35
2023-03-17T19:13:15.638Z,7.97
2023-03-17T19:15:44.143Z,7.45
2023-03-17T19:18:14.400Z,11.75
2023-03-17T19:20:43.796Z,7.60
2023-03-17T19:23:15.990Z,8.63
2023-03-17T19:25:44.453Z,8.18
2023-03-17T19:28:13.207Z,4.78
2023-03-17T19:30:42.604Z,9.82
2023-03-17T19:33:16.415Z,8.55
2023-03-17T19:35:45.217Z,11.75
2023-03-17T19:38:13.385Z,6.43
2023-03-17T19:40:41.898Z,10.13
2023-03-17T19:43:09.711Z,9.15
2023-03-17T19:45:38.861Z,8.18
2023-03-17T19:48:09.416Z,8.73
2023-03-17T19:50:38.028Z,5.63
2023-03-17T19:53:07.066Z,8.93
2023-03-17T19:55:35.673Z,7.53
2023-03-17T19:58:05.877Z,9.40
2023-03-17T20:00:37.522Z,5.00
2023-03-17T20:03:06.614Z,7.78
2023-03-17T20:05:36.431Z,6.03
2023-03-17T20:08:07.340Z,7.95
2023-03-17T20:10:35.977Z,8.23
2023-03-17T20:13:04.410Z,7.22
2023-03-17T20:15:32.995Z,9.95
2023-03-17T20:18:00.888Z,5.40
2023-03-17T20:20:30.609Z,6.13
2023-03-17T20:22:59.222Z,13.77
2023-03-17T20:25:27.198Z,6.85
2023-03-17T20:27:55.635Z,9.27
2023-03-17T20:30:24.255Z,6.13
2023-03-17T20:32:52.091Z,6.63
2023-03-17T20:35:22.608Z,6.45
2023-03-17T20:37:53.205Z,6.60
2023-03-17T20:40:21.572Z,6.65
2023-03-17T20:42:49.624Z,7.57
2023-03-17T20:45:17.458Z,5.43
2023-03-17T20:47:48.526Z,6.85
2023-03-17T20:50:16.886Z,7.30
2023-03-17T20:52:48.064Z,7.03
2023-03-17T20:55:17.404Z,6.07
2023-03-17T20:57:50.353Z,6.88
2023-03-17T21:00:22.381Z,5.82
2023-03-17T21:02:51.212Z,10.35
2023-03-17T21:05:25.389Z,6.90
2023-03-17T21:07:53.789Z,7.68
2023-03-17T21:10:21.760Z,5.25
2023-03-17T21:12:50.941Z,10.20
2023-03-17T21:15:19.372Z,8.15
2023-03-17T21:17:47.299Z,5.78
2023-03-17T21:20:15.581Z,8.63
2023-03-17T21:22:43.340Z,5.03
2023-03-17T21:25:14.051Z,7.30
2023-03-17T21:27:42.759Z,5.57
2023-03-17T21:30:14.999Z,7.82
2023-03-17T21:32:43.915Z,7.07
2023-03-17T21:35:11.564Z,8.40
2023-03-17T21:37:39.180Z,11.65
2023-03-17T21:40:08.036Z,7.30
2023-03-17T21:42:35.408Z,8.52
2023-03-17T21:45:03.375Z,5.28
2023-03-17T21:47:31.090Z,7.00
2023-03-17T21:49:58.487Z,6.68
2023-03-17T21:52:26.156Z,5.72
2023-03-17T21:54:53.633Z,4.53
2023-03-17T21:57:20.905Z,4.85
2023-03-17T21:59:48.206Z,6.47
2023-03-17T22:02:18.859Z,10.98
2023-03-17T22:04:47.020Z,7.75
2023-03-17T22:07:14.699Z,7.85
2023-03-17T22:09:41.962Z,7.90
2023-03-17T22:12:10.169Z,7.78
2023-03-17T22:14:38.000Z,5.20
2023-03-17T22:17:05.578Z,7.95
2023-03-17T22:19:32.981Z,9.20
2023-03-17T22:22:00.313Z,6.20
2023-03-17T22:24:27.771Z,9.88
2023-03-17T22:26:55.824Z,7.05
2023-03-17T22:29:23.082Z,6.63
2023-03-17T22:31:50.330Z,9.73
2023-03-17T22:34:18.225Z,10.38
2023-03-17T22:36:45.380Z,7.07
2023-03-17T22:39:12.717Z,9.95
2023-03-17T22:41:40.084Z,7.03
2023-03-17T22:44:09.725Z,9.18
2023-03-17T22:46:43.359Z,4.68
2023-03-17T22:49:11.396Z,8.25
2023-03-17T22:51:41.264Z,8.68
2023-03-17T22:54:11.347Z,8.35
2023-03-17T22:56:38.646Z,6.57
2023-03-17T22:59:05.955Z,8.10
2023-03-17T23:01:33.430Z,7.30
2023-03-17T23:04:01.037Z,7.47
2023-03-17T23:06:28.387Z,7.88
2023-03-17T23:08:56.085Z,8.25
2023-03-17T23:11:26.214Z,7.38
2023-03-17T23:13:54.216Z,6.93
2023-03-17T23:16:22.223Z,7.22
2023-03-17T23:18:49.621Z,8.32
2023-03-17T23:21:29.293Z,8.10
2023-03-17T23:23:56.827Z,7.38
2023-03-17T23:26:24.165Z,8.55
2023-03-17T23:28:51.899Z,8.60
2023-03-17T23:31:22.328Z,6.20
2023-03-17T23:33:50.500Z,11.60
2023-03-17T23:36:18.421Z,7.40
2023-03-17T23:38:46.452Z,8.80
2023-03-17T23:41:14.539Z,7.38
2023-03-17T23:43:42.521Z,11.07
2023-03-17T23:46:10.077Z,7.57
2023-03-17T23:48:37.814Z,8.13
2023-03-17T23:51:05.765Z,10.57
2023-03-17T23:53:33.040Z,11.00
2023-03-17T23:56:00.173Z,7.97
2023-03-17T23:58:27.627Z,8.10
